createdAt,value
2024-04-04T00:00:13.529Z,9.21
2024-04-04T00:05:15.121Z,9.24
2024-04-04T00:10:16.579Z,9.27
2024-04-04T00:15:18.346Z,9.3
2024-04-04T00:20:20.375Z,9.31
2024-04-04T00:25:22.565Z,9.33
2024-04-04T00:30:24.006Z,9.35
2024-04-04T00:35:25.668Z,9.39
2024-04-04T00:40:27.092Z,9.39
2024-04-04T00:45:28.717Z,9.43
2024-04-04T00:50:30.180Z,9.47
2024-04-04T00:55:31.793Z,9.54
2024-04-04T01:00:41.099Z,9.6
2024-04-04T01:05:34.403Z,9.59
2024-04-04T01:10:35.668Z,9.62
2024-04-04T01:15:37.789Z,9.63
2024-04-04T01:20:39.934Z,9.64
2024-04-04T01:25:41.677Z,9.64
2024-04-04T01:30:43.022Z,9.67
2024-04-04T01:35:44.229Z,9.71
2024-04-04T01:40:45.493Z,9.76
2024-04-04T01:45:46.910Z,9.79
2024-04-04T01:50:48.261Z,9.79
2024-04-04T01:55:49.444Z,9.82
2024-04-04T02:00:51.194Z,9.87
2024-04-04T02:05:52.970Z,9.89
2024-04-04T02:10:54.786Z,9.89
2024-04-04T02:15:56.870Z,9.92
2024-04-04T02:20:58.871Z,9.93
2024-04-04T02:26:00.886Z,9.96
2024-04-04T02:31:02.642Z,9.97
2024-04-04T02:36:14.192Z,9.97
2024-04-04T02:41:05.416Z,10.02
2024-04-04T02:46:15.486Z,10.06
2024-04-04T02:51:09.224Z,10.1
2024-04-04T02:56:10.785Z,10.12
2024-04-04T03:01:12.800Z,10.13
2024-04-04T03:06:14.142Z,10.14
2024-04-04T03:11:15.589Z,10.2
2024-04-04T03:16:16.953Z,10.18
2024-04-04T03:21:19.119Z,10.14
2024-04-04T03:26:21.238Z,10.13
2024-04-04T03:31:22.579Z,10.14
2024-04-04T03:36:24.174Z,10.14
2024-04-04T03:41:26.285Z,10.18
2024-04-04T03:46:27.718Z,10.22
2024-04-04T03:51:29.180Z,10.22
2024-04-04T03:56:30.991Z,10.22
2024-04-04T04:01:32.752Z,10.18
2024-04-04T04:06:34.019Z,10.18
2024-04-04T04:11:35.867Z,10.22
2024-04-04T04:16:37.861Z,10.24
2024-04-04T04:21:39.712Z,10.28
2024-04-04T04:26:41.580Z,10.25
2024-04-04T04:31:42.981Z,10.27
2024-04-04T04:36:44.635Z,10.28
2024-04-04T04:41:46.485Z,10.26
2024-04-04T04:46:48.229Z,10.26
2024-04-04T04:51:50.043Z,10.26
2024-04-04T04:56:51.852Z,10.28
2024-04-04T05:01:53.358Z,10.3
2024-04-04T05:06:55.194Z,10.31
2024-04-04T05:11:56.752Z,10.3
2024-04-04T05:16:58.039Z,10.32
2024-04-04T05:22:00.085Z,10.35
2024-04-04T05:27:01.292Z,10.44
2024-04-04T05:32:03.058Z,10.47
2024-04-04T05:37:04.649Z,10.5
2024-04-04T05:42:06.823Z,10.55
2024-04-04T05:47:08.106Z,10.6
2024-04-04T05:52:09.689Z,10.63
2024-04-04T05:57:10.957Z,10.65
2024-04-04T06:02:12.552Z,10.69
2024-04-04T06:07:14.047Z,10.78
2024-04-04T06:12:15.374Z,10.86
2024-04-04T06:17:16.831Z,10.94
2024-04-04T06:22:18.141Z,11.04
2024-04-04T06:27:19.383Z,11.09
2024-04-04T06:32:21.207Z,11.17
2024-04-04T06:37:22.477Z,11.35
2024-04-04T06:42:24.612Z,11.53
2024-04-04T06:47:26.140Z,11.64
2024-04-04T06:52:28.213Z,11.75
2024-04-04T06:57:30.346Z,11.83
2024-04-04T07:02:32.294Z,11.93
2024-04-04T07:07:34.158Z,12.02
2024-04-04T07:12:35.484Z,12.14
2024-04-04T07:22:38.283Z,12.38
2024-04-04T07:27:40.160Z,12.55
2024-04-04T07:32:42.337Z,12.72
2024-04-04T07:37:44.453Z,12.91
2024-04-04T07:42:45.831Z,13.11
2024-04-04T07:47:47.653Z,13.28
2024-04-04T07:52:49.555Z,13.34
2024-04-04T07:57:50.758Z,13.29
2024-04-04T08:02:52.896Z,13.26
2024-04-04T08:07:54.234Z,13.15
2024-04-04T08:12:56.163Z,13.16
2024-04-04T08:17:57.897Z,13.24
2024-04-04T08:22:59.772Z,13.42
2024-04-04T08:28:01.287Z,13.67
2024-04-04T08:33:02.598Z,13.85
2024-04-04T08:38:04.318Z,14.14
2024-04-04T08:43:05.633Z,14.41
2024-04-04T08:48:06.826Z,14.65
2024-04-04T08:53:08.921Z,15.07
2024-04-04T08:58:10.932Z,15.26
2024-04-04T09:03:12.192Z,15.54
2024-04-04T09:08:14.097Z,15.79
2024-04-04T09:13:15.418Z,15.92
2024-04-04T09:18:17.116Z,16.01
2024-04-04T09:23:18.988Z,16.23
2024-04-04T09:28:20.906Z,16.34
2024-04-04T09:33:22.342Z,16.54
2024-04-04T09:38:23.843Z,16.45
2024-04-04T09:43:25.137Z,16.42
2024-04-04T09:48:35.809Z,16.39
2024-04-04T09:53:28.665Z,16.54
2024-04-04T09:58:30.611Z,16.59
2024-04-04T10:03:31.995Z,16.71
2024-04-04T10:08:33.268Z,16.87
2024-04-04T10:13:34.614Z,17.07
2024-04-04T10:18:36.731Z,17.12
2024-04-04T10:23:38.639Z,17.28
2024-04-04T10:28:40.380Z,17.49
2024-04-04T10:33:41.667Z,17.62
2024-04-04T10:38:43.382Z,17.66
2024-04-04T10:43:45.313Z,17.59
2024-04-04T10:48:47.440Z,17.77
2024-04-04T10:53:48.983Z,18.06
2024-04-04T10:58:52.014Z,18.35
2024-04-04T11:03:52.179Z,18.62
2024-04-04T11:08:53.974Z,18.85
2024-04-04T11:13:56.043Z,18.89
2024-04-04T11:18:58.176Z,18.81
2024-04-04T11:23:59.392Z,18.86
2024-04-04T11:29:01.050Z,18.87
2024-04-04T11:34:02.328Z,18.75
2024-04-04T11:39:03.615Z,18.64
2024-04-04T11:44:05.170Z,18.54
2024-04-04T11:49:07.093Z,18.49
2024-04-04T11:54:15.103Z,18.29
2024-04-04T11:59:17.177Z,18.14
2024-04-04T12:04:19.428Z,18.1
2024-04-04T12:09:21.110Z,18.02
2024-04-04T12:14:23.201Z,17.95
2024-04-04T12:19:24.660Z,17.71
2024-04-04T12:24:26.745Z,17.76
2024-04-04T12:29:28.889Z,17.59
2024-04-04T12:34:30.505Z,17.62
2024-04-04T12:39:31.848Z,17.49
2024-04-04T12:44:33.502Z,17.45
2024-04-04T12:49:35.550Z,17.51
2024-04-04T12:54:37.667Z,17.41
2024-04-04T12:59:39.318Z,17.32
2024-04-04T13:04:40.595Z,17.15
2024-04-04T13:09:42.531Z,17.23
2024-04-04T13:14:44.556Z,17.12
2024-04-04T13:19:46.138Z,17.11
2024-04-04T13:24:47.426Z,17
2024-04-04T13:29:49.254Z,16.84
2024-04-04T13:34:50.579Z,16.82
2024-04-04T13:39:51.794Z,16.84
2024-04-04T13:44:53.788Z,16.82
2024-04-04T13:49:55.777Z,16.7
2024-04-04T13:54:57.594Z,16.7
2024-04-04T13:59:58.943Z,16.68
2024-04-04T14:05:00.455Z,16.54
2024-04-04T14:10:01.958Z,16.52
2024-04-04T14:15:03.893Z,16.54
2024-04-04T14:20:05.968Z,16.53
2024-04-04T14:25:08.864Z,16.49
2024-04-04T14:30:09.176Z,16.56
2024-04-04T14:35:10.992Z,16.54
2024-04-04T14:40:12.344Z,16.42
2024-04-04T14:45:14.427Z,16.54
2024-04-04T14:50:15.585Z,16.53
2024-04-04T14:55:17.346Z,16.52
2024-04-04T15:00:19.082Z,16.36
2024-04-04T15:05:20.548Z,16.27
2024-04-04T15:10:22.047Z,16.27
2024-04-04T15:15:23.912Z,16.29
2024-04-04T15:20:25.161Z,16.2
2024-04-04T15:25:28.237Z,16.2
2024-04-04T15:30:29.152Z,16.03
2024-04-04T15:35:30.825Z,15.74
2024-04-04T15:40:32.419Z,15.7
2024-04-04T15:45:34.485Z,15.76
2024-04-04T15:50:36.475Z,15.69
2024-04-04T15:55:38.666Z,15.65
2024-04-04T16:00:40.467Z,15.64
2024-04-04T16:05:41.882Z,15.48
2024-04-04T16:10:43.781Z,15.43
2024-04-04T16:15:45.975Z,15.37
2024-04-04T16:20:47.568Z,15.11
2024-04-04T16:25:49.036Z,15.01
2024-04-04T16:30:50.548Z,14.45
2024-04-04T16:35:52.380Z,14.38
2024-04-04T16:40:54.524Z,14.12
2024-04-04T16:45:56.483Z,13.97
2024-04-04T16:50:58.196Z,13.81
2024-04-04T16:56:00.162Z,13.64
2024-04-04T17:01:01.692Z,13.57
2024-04-04T17:06:02.946Z,13.6
2024-04-04T17:11:04.844Z,13.62
2024-04-04T17:16:06.725Z,13.58
2024-04-04T17:21:08.677Z,13.59
2024-04-04T17:26:09.939Z,13.58
2024-04-04T17:31:12.118Z,13.56
2024-04-04T17:36:14.280Z,13.58
2024-04-04T17:41:15.783Z,13.52
2024-04-04T17:46:17.089Z,13.53
2024-04-04T17:51:18.934Z,13.57
2024-04-04T17:56:20.721Z,13.59
2024-04-04T18:01:22.254Z,13.62
2024-04-04T18:06:24.127Z,13.64
2024-04-04T18:11:25.360Z,13.66
2024-04-04T18:16:26.889Z,13.68
2024-04-04T18:21:28.240Z,13.67
2024-04-04T18:26:30.218Z,13.63
2024-04-04T18:31:32.418Z,13.6
2024-04-04T18:36:34.090Z,13.59
2024-04-04T18:41:35.538Z,13.58
2024-04-04T18:46:37.124Z,13.58
2024-04-04T18:51:38.861Z,13.6
2024-04-04T18:56:40.252Z,13.61
2024-04-04T19:01:42.271Z,13.6
2024-04-04T19:06:52.759Z,13.6
2024-04-04T19:11:45.451Z,13.59
2024-04-04T19:16:47.158Z,13.6
2024-04-04T19:21:48.411Z,13.57
2024-04-04T19:26:49.726Z,13.54
2024-04-04T19:31:51.286Z,13.51
2024-04-04T19:36:53.103Z,13.5
2024-04-04T19:41:54.055Z,13.46
2024-04-04T19:46:55.708Z,13.41
2024-04-04T19:51:57.199Z,13.33
2024-04-04T19:56:58.442Z,13.24
2024-04-04T20:01:59.766Z,13.21
2024-04-04T20:07:01.249Z,13.17
2024-04-04T20:12:02.760Z,13.01
2024-04-04T20:17:04.575Z,12.9
2024-04-04T20:22:06.214Z,12.71
2024-04-04T20:27:08.353Z,12.6
2024-04-04T20:32:09.847Z,12.54
2024-04-04T20:37:11.367Z,12.52
2024-04-04T20:42:13.387Z,12.5
2024-04-04T20:47:15.582Z,12.4
2024-04-04T20:52:16.820Z,12.27
2024-04-04T20:57:18.427Z,12.1
2024-04-04T21:02:19.703Z,12.05
2024-04-04T21:07:21.130Z,11.97
2024-04-04T21:12:22.860Z,11.96
2024-04-04T21:17:24.074Z,11.83
2024-04-04T21:22:26.097Z,11.81
2024-04-04T21:27:27.530Z,11.74
2024-04-04T21:32:28.930Z,11.61
2024-04-04T21:37:30.267Z,11.57
2024-04-04T21:42:31.723Z,11.55
2024-04-04T21:47:33.802Z,11.47
2024-04-04T21:52:35.266Z,11.44
2024-04-04T21:57:36.996Z,11.47
2024-04-04T22:02:39.123Z,11.52
2024-04-04T22:07:41.090Z,11.57
2024-04-04T22:12:42.301Z,11.61
2024-04-04T22:17:43.719Z,11.65
2024-04-04T22:22:45.634Z,11.67
2024-04-04T22:27:46.889Z,11.71
2024-04-04T22:32:49.074Z,11.74
2024-04-04T22:37:50.871Z,11.76
2024-04-04T22:42:52.598Z,11.78
2024-04-04T22:47:53.888Z,11.8
2024-04-04T22:52:56.067Z,11.79
2024-04-04T22:57:57.798Z,11.71
2024-04-04T23:02:59.881Z,11.69
2024-04-04T23:08:01.737Z,11.54
2024-04-04T23:13:03.160Z,11.39
2024-04-04T23:18:04.435Z,11.34
2024-04-04T23:23:06.085Z,11.18
2024-04-04T23:28:08.030Z,11.21
2024-04-04T23:33:09.692Z,11.19
2024-04-04T23:38:11.779Z,11.2
2024-04-04T23:43:13.490Z,11.21
2024-04-04T23:48:15.268Z,11.22
2024-04-04T23:53:16.912Z,11.18
2024-04-04T23:58:18.174Z,11.14
